createdAt,value
2022-10-17T00:00:38.462Z,15.13
2022-10-17T00:03:06.210Z,8.60
2022-10-17T00:05:33.783Z,13.20
2022-10-17T00:08:01.405Z,11.07
2022-10-17T00:10:28.713Z,12.88
2022-10-17T00:12:57.742Z,13.30
2022-10-17T00:15:25.306Z,16.45
2022-10-17T00:17:52.790Z,13.65
2022-10-17T00:20:20.255Z,13.50
2022-10-17T00:22:47.809Z,11.23
2022-10-17T00:25:15.374Z,17.13
2022-10-17T00:27:42.958Z,11.07
2022-10-17T00:30:14.206Z,22.38
2022-10-17T00:32:42.777Z,10.82
2022-10-17T00:35:10.336Z,15.55
2022-10-17T00:37:37.939Z,12.20
2022-10-17T00:40:07.091Z,16.45
2022-10-17T00:42:34.771Z,16.33
2022-10-17T00:45:18.153Z,11.75
2022-10-17T00:47:47.589Z,11.83
2022-10-17T00:50:15.017Z,15.57
2022-10-17T00:52:42.480Z,19.40
2022-10-17T00:55:12.722Z,17.70
2022-10-17T00:57:40.215Z,13.13
2022-10-17T01:00:08.990Z,13.30
2022-10-17T01:02:37.937Z,13.45
2022-10-17T01:05:05.971Z,12.23
2022-10-17T01:07:36.474Z,14.43
2022-10-17T01:10:06.052Z,9.13
2022-10-17T01:12:38.306Z,15.07
2022-10-17T01:15:11.467Z,7.88
2022-10-17T01:17:47.586Z,13.35
2022-10-17T01:20:53.078Z,12.80
2022-10-17T01:23:32.414Z,12.40
2022-10-17T01:26:05.210Z,13.35
2022-10-17T01:28:51.874Z,13.63
2022-10-17T01:31:21.083Z,14.65
2022-10-17T01:33:54.335Z,17.63
2022-10-17T01:36:36.273Z,14.18
2022-10-17T01:39:07.885Z,12.85
2022-10-17T01:41:38.732Z,14.40
2022-10-17T01:44:10.029Z,13.52
2022-10-17T01:46:39.187Z,10.57
2022-10-17T01:49:08.618Z,13.57
2022-10-17T01:51:38.592Z,15.70
2022-10-17T01:54:09.963Z,16.50
2022-10-17T01:56:37.479Z,13.77
2022-10-17T01:59:07.530Z,14.80
2022-10-17T02:01:35.206Z,15.40
2022-10-17T02:04:04.331Z,18.23
2022-10-17T02:06:35.402Z,13.10
2022-10-17T02:09:15.123Z,12.05
2022-10-17T02:11:42.742Z,13.55
2022-10-17T02:14:15.845Z,13.43
2022-10-17T02:16:46.150Z,15.40
2022-10-17T02:19:36.909Z,13.18
2022-10-17T02:22:15.006Z,12.00
2022-10-17T02:24:47.451Z,19.83
2022-10-17T02:27:16.863Z,13.25
2022-10-17T02:29:48.131Z,15.20
2022-10-17T02:32:17.871Z,11.90
2022-10-17T02:34:47.830Z,16.85
2022-10-17T02:37:16.775Z,14.18
2022-10-17T02:39:44.417Z,11.43
2022-10-17T02:42:12.580Z,17.05
2022-10-17T02:44:40.928Z,12.95
2022-10-17T02:47:12.041Z,12.98
2022-10-17T02:49:40.868Z,14.48
2022-10-17T02:52:12.827Z,15.10
2022-10-17T02:54:43.129Z,14.20
2022-10-17T02:57:12.826Z,20.63
2022-10-17T02:59:40.447Z,12.73
2022-10-17T03:02:07.972Z,19.13
2022-10-17T03:04:35.496Z,14.95
2022-10-17T03:07:03.084Z,13.07
2022-10-17T03:09:32.098Z,12.93
2022-10-17T03:11:59.645Z,17.30
2022-10-17T03:14:27.191Z,11.55
2022-10-17T03:16:54.748Z,15.90
2022-10-17T03:19:22.221Z,11.68
2022-10-17T03:21:50.018Z,13.60
2022-10-17T03:24:17.535Z,16.70
2022-10-17T03:29:14.644Z,17.75
2022-10-17T03:31:42.272Z,15.32
2022-10-17T03:34:09.848Z,16.65
2022-10-17T03:36:37.446Z,13.88
2022-10-17T03:39:04.953Z,13.60
2022-10-17T03:41:32.430Z,16.67
2022-10-17T03:44:01.503Z,11.95
2022-10-17T03:46:29.020Z,17.17
2022-10-17T03:48:56.562Z,14.73
2022-10-17T03:51:23.993Z,14.85
2022-10-17T03:53:51.523Z,13.38
2022-10-17T03:56:20.045Z,13.55
2022-10-17T03:58:47.645Z,13.32
2022-10-17T04:01:17.473Z,13.20
2022-10-17T04:03:45.108Z,12.30
2022-10-17T04:06:12.981Z,11.00
2022-10-17T04:08:40.485Z,13.68
2022-10-17T04:11:08.190Z,12.23
2022-10-17T04:13:36.187Z,13.65
2022-10-17T04:16:05.018Z,13.07
2022-10-17T04:18:33.969Z,20.58
2022-10-17T04:21:02.043Z,14.93
2022-10-17T04:23:29.624Z,17.00
2022-10-17T04:25:57.212Z,14.65
2022-10-17T04:28:24.990Z,16.70
2022-10-17T04:30:57.479Z,14.73
2022-10-17T04:33:25.135Z,17.75
2022-10-17T04:35:58.445Z,11.23
2022-10-17T04:38:28.470Z,14.13
2022-10-17T04:40:58.008Z,11.68
2022-10-17T04:43:25.494Z,14.43
2022-10-17T04:45:53.007Z,14.38
2022-10-17T04:48:20.921Z,16.10
2022-10-17T04:50:54.387Z,12.68
2022-10-17T04:53:23.417Z,12.88
2022-10-17T04:55:50.921Z,9.35
2022-10-17T04:58:18.433Z,12.85
2022-10-17T05:00:46.091Z,13.30
2022-10-17T05:03:13.707Z,11.95
2022-10-17T05:05:41.495Z,15.13
2022-10-17T05:08:09.659Z,11.98
2022-10-17T05:10:39.576Z,11.55
2022-10-17T05:13:07.130Z,12.00
2022-10-17T05:15:34.643Z,9.70
2022-10-17T05:18:02.202Z,12.93
2022-10-17T05:20:29.891Z,12.93
2022-10-17T05:22:59.231Z,14.75
2022-10-17T05:25:26.804Z,9.07
2022-10-17T05:27:55.841Z,10.63
2022-10-17T05:30:23.448Z,11.57
2022-10-17T05:32:53.258Z,11.52
2022-10-17T05:35:20.787Z,8.95
2022-10-17T05:37:48.430Z,13.27
2022-10-17T05:40:16.019Z,7.72
2022-10-17T05:42:46.889Z,10.65
2022-10-17T05:45:16.067Z,12.52
2022-10-17T05:47:43.618Z,8.02
2022-10-17T05:50:11.191Z,9.00
2022-10-17T05:52:38.737Z,7.32
2022-10-17T05:55:07.248Z,9.00
2022-10-17T05:57:34.739Z,9.50
2022-10-17T06:00:02.462Z,9.63
2022-10-17T06:02:32.146Z,11.98
2022-10-17T06:05:00.276Z,12.25
2022-10-17T06:07:27.746Z,8.45
2022-10-17T06:09:55.464Z,8.55
2022-10-17T06:12:23.083Z,10.88
2022-10-17T06:14:50.611Z,16.73
2022-10-17T06:17:18.184Z,6.85
2022-10-17T06:19:47.154Z,4.63
2022-10-17T06:22:14.756Z,9.02
2022-10-17T06:24:42.312Z,9.70
2022-10-17T06:27:12.074Z,9.45
2022-10-17T06:29:39.944Z,8.63
2022-10-17T06:32:09.792Z,7.68
2022-10-17T06:34:40.294Z,7.93
2022-10-17T06:37:09.418Z,6.82
2022-10-17T06:39:36.999Z,13.65
2022-10-17T06:42:04.680Z,10.45
2022-10-17T06:44:32.284Z,12.82
2022-10-17T06:46:59.952Z,7.95
2022-10-17T06:49:27.537Z,10.07
2022-10-17T06:51:55.131Z,10.30
2022-10-17T06:54:24.277Z,7.90
2022-10-17T06:56:51.983Z,7.22
2022-10-17T06:59:19.577Z,6.25
2022-10-17T07:01:47.334Z,5.63
2022-10-17T07:04:14.906Z,7.55
2022-10-17T07:06:42.417Z,11.43
2022-10-17T07:09:09.991Z,12.85
2022-10-17T07:11:39.164Z,10.88
2022-10-17T07:14:06.770Z,8.98
2022-10-17T07:16:34.393Z,8.65
2022-10-17T07:19:01.986Z,11.40
2022-10-17T07:21:29.605Z,9.18
2022-10-17T07:23:57.180Z,8.02
2022-10-17T07:26:24.789Z,10.32
2022-10-17T07:28:54.632Z,9.23
2022-10-17T07:31:22.933Z,14.25
2022-10-17T07:33:50.694Z,3.95
2022-10-17T07:36:18.342Z,8.65
2022-10-17T07:38:45.935Z,6.97
2022-10-17T07:41:16.561Z,6.60
2022-10-17T07:43:47.146Z,6.57
2022-10-17T07:46:16.308Z,10.85
2022-10-17T07:48:43.874Z,8.32
2022-10-17T07:51:11.488Z,10.30
2022-10-17T07:53:39.797Z,7.95
2022-10-17T07:56:10.602Z,8.27
2022-10-17T07:58:38.429Z,14.25
2022-10-17T08:01:09.423Z,11.00
2022-10-17T08:03:41.562Z,8.90
2022-10-17T08:06:09.202Z,8.05
2022-10-17T08:08:36.826Z,7.30
2022-10-17T08:11:05.905Z,10.70
2022-10-17T08:13:33.452Z,9.65
2022-10-17T08:16:01.570Z,6.25
2022-10-17T08:18:29.234Z,6.90
2022-10-17T08:21:00.309Z,7.43
2022-10-17T08:23:28.131Z,11.73
2022-10-17T08:25:56.352Z,8.52
2022-10-17T08:28:24.038Z,7.38
2022-10-17T08:30:51.714Z,14.13
2022-10-17T08:33:19.204Z,12.73
2022-10-17T08:35:46.845Z,11.50
2022-10-17T08:38:16.878Z,6.97
2022-10-17T08:40:49.108Z,6.30
2022-10-17T08:43:25.008Z,12.73
2022-10-17T08:45:53.656Z,11.27
2022-10-17T08:48:23.448Z,13.10
2022-10-17T08:50:53.359Z,5.82
2022-10-17T08:53:26.007Z,9.20
2022-10-17T08:55:54.089Z,5.63
2022-10-17T08:58:22.441Z,13.45
2022-10-17T09:00:57.782Z,8.30
2022-10-17T09:03:41.228Z,8.20
2022-10-17T09:06:17.632Z,9.47
2022-10-17T09:08:50.769Z,8.00
2022-10-17T09:11:24.497Z,7.40
2022-10-17T09:13:58.927Z,8.77
2022-10-17T09:16:41.126Z,10.80
2022-10-17T09:19:12.123Z,8.48
2022-10-17T09:21:42.982Z,10.90
2022-10-17T09:24:16.695Z,9.38
2022-10-17T09:26:45.713Z,9.63
2022-10-17T09:29:20.620Z,7.15
2022-10-17T09:31:51.701Z,10.15
2022-10-17T09:34:20.385Z,3.35
2022-10-17T09:36:49.764Z,7.47
2022-10-17T09:39:20.022Z,7.40
2022-10-17T09:41:49.828Z,8.48
2022-10-17T09:44:20.240Z,8.05
2022-10-17T09:47:03.476Z,6.35
2022-10-17T09:49:33.085Z,5.35
2022-10-17T09:52:01.355Z,9.73
2022-10-17T09:54:38.135Z,8.18
2022-10-17T09:57:07.241Z,9.50
2022-10-17T09:59:35.499Z,15.07
2022-10-17T10:02:08.984Z,6.47
2022-10-17T10:04:59.856Z,8.38
2022-10-17T10:07:28.987Z,5.93
2022-10-17T10:09:58.714Z,7.38
2022-10-17T10:12:28.521Z,7.07
2022-10-17T10:14:56.493Z,7.80
2022-10-17T10:17:44.788Z,6.78
2022-10-17T10:20:30.863Z,5.43
2022-10-17T10:23:11.523Z,4.53
2022-10-17T10:25:52.348Z,10.65
2022-10-17T10:28:19.984Z,8.70
2022-10-17T10:30:49.104Z,6.70
2022-10-17T10:33:16.637Z,9.60
2022-10-17T10:35:44.362Z,8.18
2022-10-17T10:38:14.523Z,8.27
2022-10-17T10:40:47.504Z,5.28
2022-10-17T10:43:22.484Z,10.48
2022-10-17T10:45:50.184Z,5.95
2022-10-17T10:48:21.257Z,4.30
2022-10-17T10:50:51.027Z,5.30
2022-10-17T10:53:41.797Z,6.03
2022-10-17T10:56:13.938Z,6.50
2022-10-17T10:58:49.856Z,7.30
2022-10-17T11:01:22.579Z,6.57
2022-10-17T11:04:07.558Z,11.07
2022-10-17T11:06:37.723Z,4.32
2022-10-17T11:09:24.776Z,6.28
2022-10-17T11:11:58.371Z,7.65
2022-10-17T11:14:35.171Z,6.97
2022-10-17T11:17:06.117Z,5.50
2022-10-17T11:19:36.028Z,4.20
2022-10-17T11:22:09.443Z,6.45
2022-10-17T11:24:39.628Z,5.28
2022-10-17T11:27:09.269Z,6.40
2022-10-17T11:29:39.380Z,7.40
2022-10-17T11:32:09.266Z,5.88
2022-10-17T11:34:40.936Z,8.15
2022-10-17T11:37:14.395Z,5.00
2022-10-17T11:42:21.211Z,8.43
2022-10-17T11:44:49.495Z,4.82
2022-10-17T11:47:32.003Z,7.22
2022-10-17T11:52:56.494Z,3.55
2022-10-17T11:58:23.966Z,3.97
2022-10-17T12:00:57.268Z,4.00
2022-10-17T12:03:34.729Z,8.40
2022-10-17T12:06:08.582Z,6.00
2022-10-17T12:08:40.016Z,6.57
2022-10-17T12:11:10.993Z,5.35
2022-10-17T12:13:51.606Z,5.20
2022-10-17T12:16:44.597Z,6.07
2022-10-17T12:19:31.611Z,6.50
2022-10-17T12:22:01.769Z,5.80
2022-10-17T12:24:38.524Z,5.95
2022-10-17T12:27:33.388Z,5.55
2022-10-17T12:30:03.540Z,9.05
2022-10-17T12:32:46.885Z,2.65
2022-10-17T12:35:20.981Z,4.68
2022-10-17T12:38:16.566Z,3.42
2022-10-17T12:41:05.718Z,5.47
2022-10-17T12:46:56.036Z,4.00
2022-10-17T12:49:40.599Z,6.90
2022-10-17T12:52:43.992Z,4.57
2022-10-17T12:55:14.170Z,7.20
2022-10-17T12:57:57.116Z,4.13
2022-10-17T13:00:29.657Z,6.57
2022-10-17T13:03:02.318Z,6.32
2022-10-17T13:05:34.378Z,7.50
2022-10-17T13:08:04.051Z,5.38
2022-10-17T13:10:32.765Z,5.40
2022-10-17T13:13:06.280Z,8.35
2022-10-17T13:15:33.783Z,2.97
2022-10-17T13:18:01.679Z,3.90
2022-10-17T13:20:31.994Z,4.40
2022-10-17T13:22:59.966Z,5.10
2022-10-17T13:25:27.965Z,6.40
2022-10-17T13:28:07.536Z,5.50
2022-10-17T13:30:36.439Z,7.40
2022-10-17T13:33:04.172Z,5.68
2022-10-17T13:38:23.713Z,8.43
2022-10-17T13:40:51.447Z,3.78
2022-10-17T13:43:19.855Z,6.32
2022-10-17T13:45:48.368Z,4.35
2022-10-17T13:48:19.929Z,6.88
2022-10-17T13:50:51.968Z,6.65
2022-10-17T13:53:25.996Z,6.35
2022-10-17T13:56:16.209Z,4.07
2022-10-17T13:58:47.427Z,5.80
2022-10-17T14:01:15.110Z,6.38
2022-10-17T14:03:48.725Z,3.35
2022-10-17T14:06:19.943Z,8.35
2022-10-17T14:08:58.581Z,4.45
2022-10-17T14:11:33.070Z,6.70
2022-10-17T14:14:01.043Z,9.95
2022-10-17T14:16:33.714Z,6.32
2022-10-17T14:19:01.284Z,9.65
2022-10-17T14:21:43.456Z,4.80
2022-10-17T14:24:14.873Z,5.80
2022-10-17T14:26:49.329Z,3.78
2022-10-17T14:29:33.336Z,4.22
2022-10-17T14:32:03.784Z,2.60
2022-10-17T14:34:33.905Z,4.55
2022-10-17T14:37:03.168Z,6.35
2022-10-17T14:39:30.831Z,6.18
2022-10-17T14:42:03.415Z,10.75
2022-10-17T14:44:33.188Z,7.40
2022-10-17T14:47:18.214Z,6.65
2022-10-17T14:49:50.969Z,6.85
2022-10-17T14:52:31.229Z,5.03
2022-10-17T14:54:59.610Z,4.07
2022-10-17T14:57:34.801Z,6.15
2022-10-17T15:00:02.470Z,4.55
2022-10-17T15:02:30.893Z,5.07
2022-10-17T15:04:58.844Z,3.67
2022-10-17T15:07:26.382Z,4.15
2022-10-17T15:09:55.464Z,4.28
2022-10-17T15:12:24.245Z,5.72
2022-10-17T15:14:51.878Z,6.65
2022-10-17T15:17:20.217Z,6.20
2022-10-17T15:19:47.872Z,4.38
2022-10-17T15:22:15.217Z,3.97
2022-10-17T15:24:42.590Z,4.72
2022-10-17T15:27:14.978Z,4.18
2022-10-17T15:29:42.306Z,3.00
2022-10-17T15:32:09.651Z,2.17
2022-10-17T15:34:37.365Z,4.43
2022-10-17T15:37:04.905Z,2.50
2022-10-17T15:39:32.537Z,8.18
2022-10-17T15:42:00.035Z,2.50
2022-10-17T15:44:29.212Z,4.10
2022-10-17T15:46:56.477Z,4.50
2022-10-17T15:49:23.821Z,3.20
2022-10-17T15:51:53.030Z,4.07
2022-10-17T15:54:22.691Z,4.80
2022-10-17T15:56:52.582Z,3.97
2022-10-17T15:59:22.767Z,9.15
2022-10-17T16:01:51.548Z,8.32
2022-10-17T16:04:18.881Z,5.32
2022-10-17T16:06:46.138Z,6.75
2022-10-17T16:09:13.446Z,5.03
2022-10-17T16:11:41.530Z,5.57
2022-10-17T16:14:10.913Z,4.07
2022-10-17T16:16:38.173Z,3.92
2022-10-17T16:19:07.048Z,5.28
2022-10-17T16:21:35.046Z,7.15
2022-10-17T16:24:02.385Z,3.88
2022-10-17T16:26:29.788Z,5.78
2022-10-17T16:28:57.331Z,3.97
2022-10-17T16:31:25.727Z,4.93
2022-10-17T16:33:53.893Z,8.88
2022-10-17T16:36:22.696Z,2.72
2022-10-17T16:38:49.990Z,3.63
2022-10-17T16:41:22.927Z,6.43
2022-10-17T16:43:50.679Z,2.10
2022-10-17T16:46:18.096Z,2.97
2022-10-17T16:48:45.829Z,9.23
2022-10-17T16:51:13.459Z,6.97
2022-10-17T16:53:42.662Z,6.53
2022-10-17T16:56:10.889Z,5.13
2022-10-17T16:58:38.577Z,10.45
2022-10-17T17:01:07.569Z,6.75
2022-10-17T17:03:36.216Z,5.22
2022-10-17T17:06:03.803Z,4.80
2022-10-17T17:08:31.130Z,4.40
2022-10-17T17:11:00.031Z,3.78
2022-10-17T17:13:28.174Z,4.68
2022-10-17T17:16:03.938Z,4.88
2022-10-17T17:18:31.332Z,3.92
2022-10-17T17:20:59.689Z,6.20
2022-10-17T17:23:27.057Z,4.50
2022-10-17T17:26:00.703Z,4.63
2022-10-17T17:28:28.110Z,2.83
2022-10-17T17:30:55.959Z,3.35
2022-10-17T17:33:23.580Z,4.82
2022-10-17T17:35:55.177Z,3.58
2022-10-17T17:38:22.626Z,3.88
2022-10-17T17:40:50.918Z,3.42
2022-10-17T17:43:20.156Z,9.25
2022-10-17T17:45:47.521Z,4.70
2022-10-17T17:48:21.180Z,7.13
2022-10-17T17:51:00.169Z,4.05
2022-10-17T17:53:27.786Z,5.28
2022-10-17T17:56:02.198Z,5.93
2022-10-17T17:58:31.014Z,4.50
2022-10-17T18:00:58.355Z,4.43
2022-10-17T18:03:27.052Z,8.18
2022-10-17T18:05:54.472Z,5.32
2022-10-17T18:08:21.819Z,9.02
2022-10-17T18:10:49.158Z,9.15
2022-10-17T18:13:16.734Z,5.85
2022-10-17T18:15:45.730Z,4.40
2022-10-17T18:18:13.294Z,7.30
2022-10-17T18:20:41.360Z,5.75
2022-10-17T18:23:08.849Z,10.10
2022-10-17T18:25:36.379Z,10.57
2022-10-17T18:28:03.921Z,8.05
2022-10-17T18:30:34.429Z,12.32
2022-10-17T18:33:03.470Z,19.15
2022-10-17T18:35:30.774Z,11.75
2022-10-17T18:37:58.381Z,8.40
2022-10-17T18:40:25.735Z,11.40
2022-10-17T18:42:53.086Z,15.57
2022-10-17T18:45:20.676Z,12.73
2022-10-17T18:47:48.041Z,11.52
2022-10-17T18:50:19.694Z,7.57
2022-10-17T18:52:47.364Z,9.25
2022-10-17T18:55:14.737Z,9.48
2022-10-17T18:57:42.140Z,10.93
2022-10-17T19:00:10.895Z,9.50
2022-10-17T19:02:38.201Z,12.73
2022-10-17T19:05:05.906Z,12.98
2022-10-17T19:07:34.666Z,11.45
2022-10-17T19:10:01.956Z,8.05
2022-10-17T19:12:29.267Z,7.80
2022-10-17T19:14:56.983Z,12.32
2022-10-17T19:17:24.369Z,14.25
2022-10-17T19:19:51.704Z,6.10
2022-10-17T19:22:19.044Z,7.85
2022-10-17T19:24:47.786Z,11.73
2022-10-17T19:27:15.226Z,11.93
2022-10-17T19:29:42.578Z,14.68
2022-10-17T19:32:14.188Z,10.02
2022-10-17T19:34:44.383Z,12.15
2022-10-17T19:37:11.705Z,8.63
2022-10-17T19:39:39.195Z,10.57
2022-10-17T19:42:08.048Z,13.00
2022-10-17T19:44:35.577Z,9.75
2022-10-17T19:47:02.950Z,6.70
2022-10-17T19:49:30.399Z,7.72
2022-10-17T19:51:57.741Z,7.70
2022-10-17T19:54:25.434Z,11.80
2022-10-17T19:56:52.799Z,8.80
2022-10-17T19:59:21.719Z,8.32
2022-10-17T20:01:49.722Z,5.82
2022-10-17T20:04:17.234Z,14.48
2022-10-17T20:06:44.641Z,10.02
2022-10-17T20:09:15.724Z,7.43
2022-10-17T20:11:45.223Z,12.38
2022-10-17T20:14:12.815Z,10.35
2022-10-17T20:16:41.632Z,8.40
2022-10-17T20:19:10.431Z,12.25
2022-10-17T20:21:37.855Z,10.38
2022-10-17T20:24:06.580Z,7.90
2022-10-17T20:26:39.165Z,9.65
2022-10-17T20:29:09.440Z,8.05
2022-10-17T20:31:37.103Z,11.23
2022-10-17T20:34:06.173Z,14.27
2022-10-17T20:36:33.720Z,9.63
2022-10-17T20:39:01.506Z,10.27
2022-10-17T20:41:29.049Z,9.70
2022-10-17T20:43:56.532Z,12.15
2022-10-17T20:46:36.454Z,6.03
2022-10-17T20:49:06.926Z,7.20
2022-10-17T20:51:34.434Z,8.20
2022-10-17T20:54:02.096Z,9.02
2022-10-17T20:56:31.320Z,5.72
2022-10-17T20:59:00.103Z,8.82
2022-10-17T21:01:27.949Z,7.43
2022-10-17T21:03:58.864Z,7.78
2022-10-17T21:06:29.911Z,9.02
2022-10-17T21:08:57.474Z,8.52
2022-10-17T21:11:26.189Z,7.75
2022-10-17T21:13:59.263Z,6.68
2022-10-17T21:16:27.092Z,6.53
2022-10-17T21:18:54.876Z,8.35
2022-10-17T21:21:23.727Z,5.88
2022-10-17T21:23:53.548Z,5.53
2022-10-17T21:26:21.322Z,9.07
2022-10-17T21:28:49.512Z,11.07
2022-10-17T21:31:18.193Z,10.05
2022-10-17T21:33:46.702Z,8.38
2022-10-17T21:36:14.277Z,8.20
2022-10-17T21:38:41.857Z,9.52
2022-10-17T21:41:11.769Z,15.13
2022-10-17T21:43:39.336Z,11.57
2022-10-17T21:46:09.077Z,5.88
2022-10-17T21:48:36.643Z,8.30
2022-10-17T21:51:05.632Z,8.82
2022-10-17T21:53:33.528Z,6.78
2022-10-17T21:56:01.163Z,11.15
2022-10-17T21:58:30.222Z,6.80
2022-10-17T22:01:04.310Z,8.05
2022-10-17T22:03:33.563Z,7.63
2022-10-17T22:06:13.079Z,6.95
2022-10-17T22:08:48.763Z,9.02
2022-10-17T22:11:18.880Z,4.85
2022-10-17T22:13:47.957Z,7.32
2022-10-17T22:16:16.086Z,9.93
2022-10-17T22:18:43.642Z,5.38
2022-10-17T22:21:18.224Z,8.10
2022-10-17T22:23:46.625Z,4.90
2022-10-17T22:26:14.221Z,7.70
2022-10-17T22:28:41.819Z,7.00
2022-10-17T22:31:10.972Z,9.35
2022-10-17T22:33:39.635Z,8.65
2022-10-17T22:36:08.329Z,6.95
2022-10-17T22:38:35.852Z,12.02
2022-10-17T22:41:03.410Z,6.07
2022-10-17T22:43:31.025Z,7.32
2022-10-17T22:45:59.813Z,5.45
2022-10-17T22:48:28.905Z,7.63
2022-10-17T22:50:57.481Z,5.32
2022-10-17T22:53:25.011Z,6.00
2022-10-17T22:55:52.745Z,6.95
2022-10-17T22:58:20.249Z,7.40
2022-10-17T23:00:47.837Z,7.13
2022-10-17T23:03:15.396Z,7.20
2022-10-17T23:05:44.494Z,5.45
2022-10-17T23:08:12.023Z,5.20
2022-10-17T23:10:39.579Z,6.28
2022-10-17T23:13:07.203Z,7.97
2022-10-17T23:15:34.709Z,5.43
2022-10-17T23:18:02.339Z,7.47
2022-10-17T23:20:30.678Z,5.88
2022-10-17T23:22:59.711Z,5.88
2022-10-17T23:25:27.303Z,6.72
2022-10-17T23:27:54.898Z,6.68
2022-10-17T23:30:22.446Z,4.80
2022-10-17T23:32:50.012Z,7.57
2022-10-17T23:35:17.684Z,9.05
2022-10-17T23:37:45.147Z,6.70
2022-10-17T23:40:14.430Z,3.67
2022-10-17T23:42:41.910Z,7.13
2022-10-17T23:45:10.358Z,5.28
2022-10-17T23:47:37.954Z,4.70
2022-10-17T23:50:06.373Z,5.72
2022-10-17T23:52:33.935Z,4.70
2022-10-17T23:55:01.537Z,5.00
2022-10-17T23:57:30.835Z,8.18
2022-10-17T23:59:58.758Z,4.05
